createdAt,value
2022-09-21T04:12:01.139Z,0.2
2022-09-21T04:13:01.040Z,0.3
2022-09-21T04:16:01.161Z,0.5
2022-09-21T04:18:01.047Z,0.7
2022-09-21T04:19:01.048Z,0.8
2022-09-21T04:20:01.338Z,1.0
2022-09-21T04:21:01.041Z,1.2
2022-09-21T04:22:01.047Z,1.4
2022-09-21T04:23:06.061Z,1.7
2022-09-21T04:24:01.054Z,2.1
2022-09-21T04:26:01.044Z,3.0
2022-09-21T04:27:01.045Z,3.5
2022-09-21T04:28:01.048Z,4.2
2022-09-21T04:29:01.041Z,4.9
2022-09-21T04:31:01.098Z,7.3
2022-09-21T04:32:01.047Z,8.5
2022-09-21T04:33:01.040Z,10.3
2022-09-21T04:34:01.044Z,12.1
2022-09-21T04:36:01.052Z,17.9
2022-09-21T04:37:01.338Z,20.7
2022-09-21T04:38:01.055Z,25.1
2022-09-21T04:39:01.298Z,29.5
2022-09-21T04:40:01.408Z,36.4
2022-09-21T04:41:01.123Z,43.3
2022-09-21T04:42:01.056Z,50.1
2022-09-21T04:43:01.046Z,60.7
2022-09-21T04:44:01.050Z,71.2
2022-09-21T04:46:01.071Z,102.7
2022-09-21T04:47:01.056Z,118.4
2022-09-21T04:48:01.047Z,141.3
2022-09-21T04:49:01.156Z,164.3
2022-09-21T04:51:01.047Z,229.6
2022-09-21T04:52:01.043Z,262.3
2022-09-21T04:53:01.041Z,307.4
2022-09-21T04:54:01.069Z,352.5
2022-09-21T04:55:01.335Z,412.7
2022-09-21T04:56:01.040Z,472.8
2022-09-21T04:57:01.472Z,532.9
2022-09-21T04:58:01.053Z,610.9
2022-09-21T04:59:01.317Z,688.9
2022-09-21T05:01:01.116Z,886.5
2022-09-21T05:02:01.414Z,985.3
2022-09-21T05:03:01.148Z,1107.8
2022-09-21T05:04:01.349Z,1230.3
2022-09-21T05:05:01.366Z,1377.3
2022-09-21T05:06:01.056Z,1524.3
2022-09-21T05:07:01.053Z,1671.3
2022-09-21T05:08:01.670Z,1843.5
2022-09-21T05:09:01.070Z,2015.7
2022-09-21T05:10:01.486Z,2214.0
2022-09-21T05:11:01.062Z,2412.3
2022-09-21T05:12:01.094Z,2610.7
2022-09-21T05:13:01.088Z,2834.9
2022-09-21T05:14:01.066Z,3059.1
2022-09-21T05:16:01.360Z,3559.5
2022-09-21T05:17:01.064Z,3809.7
2022-09-21T05:18:01.248Z,4086.7
2022-09-21T05:19:01.139Z,4363.8
2022-09-21T05:20:01.506Z,4660.9
2022-09-21T05:21:01.132Z,4957.9
2022-09-21T05:22:01.063Z,5255.0
2022-09-21T05:23:01.070Z,5569.8
2022-09-21T05:24:01.070Z,5884.6
2022-09-21T05:25:08.543Z,6212.4
2022-09-21T05:26:01.369Z,6540.2
2022-09-21T05:27:01.063Z,6868.0
2022-09-21T05:28:01.068Z,7205.6
2022-09-21T05:29:01.094Z,7543.2
2022-09-21T05:31:16.991Z,8228.7
2022-09-21T05:32:01.063Z,8571.4
2022-09-21T05:33:01.068Z,8913.2
2022-09-21T05:34:01.069Z,9255.0
2022-09-21T05:35:01.310Z,9598.9
2022-09-21T05:36:01.196Z,9942.7
2022-09-21T05:37:01.068Z,10286.6
2022-09-21T05:38:01.078Z,10630.5
2022-09-21T05:39:01.073Z,10974.5
2022-09-21T05:41:01.082Z,11660.7
2022-09-21T05:42:01.096Z,12003.9
2022-09-21T05:43:01.080Z,12344.1
2022-09-21T05:44:01.077Z,12684.3
2022-09-21T05:45:02.632Z,13020.9
2022-09-21T05:46:01.362Z,13357.6
2022-09-21T05:47:01.072Z,13694.3
2022-09-21T05:48:01.079Z,14025.9
2022-09-21T05:49:01.083Z,14357.6
2022-09-21T05:51:01.073Z,15004.3
2022-09-21T05:52:01.082Z,15327.6
2022-09-21T05:53:01.070Z,15644.9
2022-09-21T05:54:01.071Z,15962.3
2022-09-21T05:56:01.078Z,16590.1
2022-09-21T05:57:02.101Z,16904.1
2022-09-21T05:58:01.348Z,17219.9
2022-09-21T05:59:01.080Z,17535.8
2022-09-21T06:00:03.999Z,17889.1
2022-09-21T06:01:01.193Z,18242.3
2022-09-21T06:02:01.096Z,18595.6
2022-09-21T06:03:01.083Z,19117.2
2022-09-21T06:04:01.361Z,19638.8
2022-09-21T06:05:01.455Z,20193.4
2022-09-21T06:06:01.089Z,20748.0
2022-09-21T06:07:01.359Z,21302.6
2022-09-21T06:08:01.089Z,21749.7
2022-09-21T06:09:01.090Z,22196.7
2022-09-21T06:11:01.088Z,23205.7
2022-09-21T06:12:01.084Z,23710.1
2022-09-21T06:13:01.086Z,24256.0
2022-09-21T06:14:01.082Z,24801.9
2022-09-21T06:16:01.091Z,25530.7
2022-09-21T06:17:01.153Z,25895.1
2022-09-21T06:18:01.090Z,25987.0
2022-09-21T06:19:02.115Z,26078.9
2022-09-21T06:21:01.086Z,26045.3
2022-09-21T06:22:01.093Z,26028.5
2022-09-21T06:23:01.086Z,26110.7
2022-09-21T06:24:01.084Z,26192.8
2022-09-21T06:26:01.092Z,26266.9
2022-09-21T06:27:01.399Z,26304.0
2022-09-21T06:28:01.088Z,26300.5
2022-09-21T06:29:01.361Z,26296.9
2022-09-21T06:31:01.172Z,26474.3
2022-09-21T06:32:01.107Z,26562.9
2022-09-21T06:33:01.122Z,26732.7
2022-09-21T06:34:01.104Z,26902.5
2022-09-21T06:36:01.168Z,27420.4
2022-09-21T06:37:01.098Z,27679.3
2022-09-21T06:38:01.103Z,27907.7
2022-09-21T06:39:01.102Z,28136.1
2022-09-21T06:41:01.090Z,28524.3
2022-09-21T06:42:01.106Z,28718.3
2022-09-21T06:43:01.370Z,28892.7
2022-09-21T06:44:01.362Z,29067.1
2022-09-21T06:45:02.074Z,29352.6
2022-09-21T06:46:02.157Z,29638.1
2022-09-21T06:47:01.096Z,29923.5
2022-09-21T06:48:01.107Z,31457.6
2022-09-21T06:49:04.319Z,32991.7
2022-09-21T06:50:02.801Z,34571.6
2022-09-21T06:51:01.103Z,36151.5
2022-09-21T06:52:01.101Z,37731.5
2022-09-21T06:53:01.110Z,39418.1
2022-09-21T06:54:01.102Z,41104.7
2022-09-21T06:56:01.112Z,44699.9
2022-09-21T06:57:01.101Z,46497.5
2022-09-21T06:58:01.130Z,48414.6
2022-09-21T06:59:01.109Z,50331.7
2022-09-21T07:01:01.300Z,54313.5
2022-09-21T07:02:01.489Z,56304.3
2022-09-21T07:03:02.131Z,57258.1
2022-09-21T07:04:01.107Z,58211.8
2022-09-21T07:06:01.106Z,59902.5
2022-09-21T07:07:03.446Z,60747.8
2022-09-21T07:08:01.193Z,61474.5
2022-09-21T09:15:01.607Z,65535.0
2022-09-21T09:45:01.606Z,65535.0
2022-09-21T10:15:01.609Z,65535.0
2022-09-21T10:45:01.608Z,65535.0
2022-09-21T11:15:01.769Z,65535.0
2022-09-21T11:45:01.704Z,65535.0
2022-09-21T12:15:01.943Z,65535.0
2022-09-21T13:00:02.735Z,65535.0
2022-09-21T13:30:02.063Z,65535.0
2022-09-21T13:45:01.648Z,65535.0
2022-09-21T14:15:02.094Z,65535.0
2022-09-21T14:30:12.630Z,65535.0
2022-09-21T14:45:02.310Z,65535.0
2022-09-21T14:48:00.993Z,65102.7
2022-09-21T14:49:00.967Z,64670.5
2022-09-21T15:00:02.652Z,64670.5
2022-09-21T15:01:01.004Z,64586.3
2022-09-21T15:02:00.967Z,64502.2
2022-09-21T15:03:01.030Z,64398.9
2022-09-21T15:04:01.067Z,64295.7
2022-09-21T15:05:17.025Z,63803.9
2022-09-21T15:06:00.967Z,63312.2
2022-09-21T15:07:00.973Z,62820.5
2022-09-21T15:08:00.972Z,62360.6
2022-09-21T15:09:01.999Z,61900.7
2022-09-21T15:10:01.198Z,61440.9
2022-09-21T15:11:00.982Z,60550.3
2022-09-21T15:12:00.970Z,59659.8
2022-09-21T15:13:00.983Z,58331.9
2022-09-21T15:14:00.974Z,57003.9
2022-09-21T15:15:01.764Z,55676.0
2022-09-21T15:16:01.010Z,54417.1
2022-09-21T15:17:00.971Z,53158.3
2022-09-21T15:18:00.980Z,52431.3
2022-09-21T15:19:00.975Z,51704.4
2022-09-21T15:20:01.824Z,50933.7
2022-09-21T15:21:00.984Z,49935.8
2022-09-21T15:22:02.019Z,48937.9
2022-09-21T15:23:01.458Z,48470.3
2022-09-21T15:24:00.984Z,48002.7
2022-09-21T15:25:01.847Z,47535.1
2022-09-21T15:26:00.975Z,48425.7
2022-09-21T15:27:00.983Z,49316.2
2022-09-21T15:28:00.982Z,50644.1
2022-09-21T15:29:15.442Z,51972.1
2022-09-21T15:30:01.777Z,53300.0
2022-09-21T15:31:01.009Z,54643.0
2022-09-21T15:32:01.073Z,55986.0
2022-09-21T15:33:00.980Z,57186.6
2022-09-21T15:34:00.984Z,58387.2
2022-09-21T15:35:01.257Z,59587.8
2022-09-21T15:36:01.281Z,60843.0
2022-09-21T15:37:00.977Z,62098.2
2022-09-21T15:38:00.994Z,62653.7
2022-09-21T15:39:00.980Z,63209.3
2022-09-21T15:40:01.272Z,63764.8
2022-09-21T15:41:03.881Z,63258.8
2022-09-21T15:42:00.992Z,62752.8
2022-09-21T15:43:01.041Z,61963.4
2022-09-21T15:44:00.995Z,61174.0
2022-09-21T15:46:00.995Z,59291.1
2022-09-21T15:47:01.103Z,58197.7
2022-09-21T15:48:00.989Z,56961.3
2022-09-21T15:49:01.741Z,55725.0
2022-09-21T15:51:00.991Z,53233.6
2022-09-21T15:52:01.018Z,51978.5
2022-09-21T15:53:00.988Z,50702.6
2022-09-21T15:54:00.988Z,49426.7
2022-09-21T15:55:01.257Z,48150.7
2022-09-21T15:56:00.990Z,46834.1
2022-09-21T15:57:03.614Z,45517.5
2022-09-21T15:58:00.989Z,44349.6
2022-09-21T15:59:00.990Z,43181.7
2022-09-21T16:01:01.011Z,40999.4
2022-09-21T16:02:00.999Z,39985.1
2022-09-21T16:03:00.987Z,39070.5
2022-09-21T16:04:01.106Z,38155.9
2022-09-21T16:06:00.990Z,36420.4
2022-09-21T16:07:00.992Z,35599.5
2022-09-21T16:08:01.014Z,34882.3
2022-09-21T16:09:00.990Z,34165.1
2022-09-21T16:11:00.990Z,32834.1
2022-09-21T16:12:00.994Z,32220.2
2022-09-21T16:13:01.004Z,31698.1
2022-09-21T16:14:00.991Z,31175.9
2022-09-21T16:16:01.071Z,30236.7
2022-09-21T16:17:01.269Z,29819.5
2022-09-21T16:18:00.993Z,29472.1
2022-09-21T16:19:00.989Z,29124.6
2022-09-21T16:21:00.992Z,28495.7
2022-09-21T16:22:00.990Z,28214.2
2022-09-21T16:23:00.986Z,27982.1
2022-09-21T16:24:01.023Z,27750.1
2022-09-21T16:25:01.713Z,27518.0
2022-09-21T16:26:00.990Z,27340.3
2022-09-21T16:27:01.021Z,27162.5
2022-09-21T16:28:00.996Z,26999.4
2022-09-21T16:29:00.993Z,26836.3
2022-09-21T16:30:03.122Z,26673.1
2022-09-21T16:31:01.064Z,26530.4
2022-09-21T16:32:01.018Z,26387.7
2022-09-21T16:33:01.059Z,26243.8
2022-09-21T16:34:00.986Z,26099.9
2022-09-21T16:35:01.629Z,25956.1
2022-09-21T16:36:01.022Z,25809.9
2022-09-21T16:37:00.997Z,25663.7
2022-09-21T16:38:01.062Z,25490.6
2022-09-21T16:39:00.995Z,25317.5
2022-09-21T16:40:02.152Z,25144.5
2022-09-21T16:41:00.989Z,24945.5
2022-09-21T16:42:00.995Z,24746.5
2022-09-21T16:43:00.994Z,24512.9
2022-09-21T16:44:00.991Z,24279.3
2022-09-21T16:45:01.847Z,24045.7
2022-09-21T16:46:01.021Z,23768.7
2022-09-21T16:47:01.086Z,23491.8
2022-09-21T16:48:00.997Z,23175.4
2022-09-21T16:49:01.006Z,22859.0
2022-09-21T16:50:01.955Z,22542.6
2022-09-21T16:51:00.999Z,22180.2
2022-09-21T16:52:00.994Z,21817.8
2022-09-21T16:53:00.996Z,21409.9
2022-09-21T16:54:01.010Z,21002.1
2022-09-21T16:55:01.688Z,20594.2
2022-09-21T16:56:01.026Z,20154.5
2022-09-21T16:57:03.247Z,19714.9
2022-09-21T16:58:00.993Z,19253.9
2022-09-21T16:59:01.167Z,18793.0
2022-09-21T17:00:02.937Z,18332.1
2022-09-21T17:01:01.352Z,17848.0
2022-09-21T17:02:01.062Z,17363.9
2022-09-21T17:03:01.004Z,16862.3
2022-09-21T17:04:01.001Z,16360.7
2022-09-21T17:06:01.031Z,15340.2
2022-09-21T17:07:00.995Z,14821.3
2022-09-21T17:08:00.995Z,14272.7
2022-09-21T17:09:01.001Z,13724.2
2022-09-21T17:11:01.325Z,12604.9
2022-09-21T17:12:01.106Z,12034.1
2022-09-21T17:13:01.003Z,11476.9
2022-09-21T17:14:00.996Z,10919.7
2022-09-21T17:16:01.630Z,9834.4
2022-09-21T17:17:01.002Z,9306.3
2022-09-21T17:18:01.001Z,8812.2
2022-09-21T17:19:01.066Z,8318.1
2022-09-21T17:21:00.999Z,7366.8
2022-09-21T17:22:01.005Z,6909.7
2022-09-21T17:23:01.031Z,6494.8
2022-09-21T17:24:02.029Z,6079.9
2022-09-21T17:26:01.008Z,5294.6
2022-09-21T17:27:01.028Z,4924.1
2022-09-21T17:28:01.097Z,4589.8
2022-09-21T17:29:01.007Z,4255.5
2022-09-21T17:31:01.060Z,3621.6
2022-09-21T17:32:01.010Z,3322.1
2022-09-21T17:33:01.006Z,3052.5
2022-09-21T17:34:01.008Z,2782.9
2022-09-21T17:36:01.006Z,2280.5
2022-09-21T17:37:01.011Z,2047.8
2022-09-21T17:38:01.015Z,1861.4
2022-09-21T17:39:01.008Z,1675.0
2022-09-21T17:40:05.955Z,1488.6
2022-09-21T17:41:01.021Z,1339.9
2022-09-21T17:42:01.009Z,1191.1
2022-09-21T17:43:01.014Z,1067.3
2022-09-21T17:44:01.106Z,943.4
2022-09-21T17:45:08.311Z,819.5
2022-09-21T17:46:01.068Z,717.2
2022-09-21T17:47:01.010Z,614.9
2022-09-21T17:48:06.007Z,538.1
2022-09-21T17:49:06.015Z,461.4
2022-09-21T17:50:01.670Z,384.7
2022-09-21T17:51:01.008Z,328.9
2022-09-21T17:52:01.090Z,273.1
2022-09-21T17:53:01.012Z,234.5
2022-09-21T17:54:01.034Z,195.9
2022-09-21T17:55:06.544Z,157.3
2022-09-21T17:56:01.003Z,132.7
2022-09-21T17:57:01.040Z,108.2
2022-09-21T17:58:01.009Z,92.7
2022-09-21T17:59:01.008Z,77.3
2022-09-21T18:00:03.871Z,61.8
2022-09-21T18:01:01.091Z,52.1
2022-09-21T18:02:02.141Z,42.3
2022-09-21T18:03:01.069Z,36.3
2022-09-21T18:04:01.024Z,30.3
2022-09-21T18:05:16.838Z,24.3
2022-09-21T18:06:01.041Z,20.6
2022-09-21T18:07:01.011Z,16.9
2022-09-21T18:08:01.004Z,14.5
2022-09-21T18:09:01.019Z,12.2
2022-09-21T18:10:22.103Z,9.9
2022-09-21T18:11:01.136Z,8.4
2022-09-21T18:12:01.006Z,6.9
2022-09-21T18:13:01.010Z,6.0
2022-09-21T18:14:01.102Z,5.1
2022-09-21T18:16:01.336Z,3.5
2022-09-21T18:17:01.011Z,2.9
2022-09-21T18:18:01.024Z,2.6
2022-09-21T18:19:01.014Z,2.3
2022-09-21T18:21:01.406Z,1.7
2022-09-21T18:22:01.011Z,1.4
2022-09-21T18:23:01.017Z,1.2
2022-09-21T18:24:01.016Z,1.0
2022-09-21T18:25:01.572Z,0.8
2022-09-21T18:26:01.266Z,0.7
2022-09-21T18:27:01.019Z,0.5
2022-09-21T18:29:08.963Z,0.4
2022-09-21T18:30:01.433Z,0.3
2022-09-21T18:32:01.363Z,0.2
2022-09-21T18:33:01.017Z,0.1
